sensor_id;sensor_type;location;lat;lon;timestamp;pressure;altitude;pressure_sealevel;temperature;humidity
77517;BME280;68414;53.946;27.634;2024-01-25T00:00:17;97099.820312;;;4.980000;79.765625
77517;BME280;68414;53.946;27.634;2024-01-25T00:01:17;97091.687500;;;5.030000;79.699219
77517;BME280;68414;53.946;27.634;2024-01-25T00:02:16;97093.421875;;;5.080000;79.576172
77517;BME280;68414;53.946;27.634;2024-01-25T00:03:18;97090.296875;;;5.150000;78.692383
77517;BME280;68414;53.946;27.634;2024-01-25T00:04:16;97092.171875;;;5.140000;78.735352
77517;BME280;68414;53.946;27.634;2024-01-25T00:05:17;97089.203125;;;5.160000;79.141602
77517;BME280;68414;53.946;27.634;2024-01-25T00:06:17;97092.648438;;;5.160000;78.804688
77517;BME280;68414;53.946;27.634;2024-01-25T00:07:16;97087.640625;;;5.150000;79.315430
77517;BME280;68414;53.946;27.634;2024-01-25T00:08:16;97093.906250;;;5.190000;79.203125
77517;BME280;68414;53.946;27.634;2024-01-25T00:09:16;97083.875000;;;5.160000;79.338867
77517;BME280;68414;53.946;27.634;2024-01-25T00:10:17;97090.148438;;;5.200000;79.018555
77517;BME280;68414;53.946;27.634;2024-01-25T00:11:16;97088.890625;;;5.170000;78.740234
77517;BME280;68414;53.946;27.634;2024-01-25T00:12:16;97077.281250;;;5.220000;78.661133
77517;BME280;68414;53.946;27.634;2024-01-25T00:13:16;97085.585938;;;5.290000;78.620117
77517;BME280;68414;53.946;27.634;2024-01-25T00:14:16;97084.015625;;;5.280000;78.375977
77517;BME280;68414;53.946;27.634;2024-01-25T00:15:17;97087.781250;;;5.270000;78.409180
77517;BME280;68414;53.946;27.634;2024-01-25T00:16:16;97091.070312;;;5.320000;78.955078
77517;BME280;68414;53.946;27.634;2024-01-25T00:17:16;97090.750000;;;5.250000;78.152344
77517;BME280;68414;53.946;27.634;2024-01-25T00:18:16;97092.007812;;;5.280000;78.419922
77517;BME280;68414;53.946;27.634;2024-01-25T00:19:16;97086.359375;;;5.210000;78.801758
77517;BME280;68414;53.946;27.634;2024-01-25T00:20:16;97086.828125;;;5.230000;78.783203
77517;BME280;68414;53.946;27.634;2024-01-25T00:21:16;97085.585938;;;5.290000;79.068359
77517;BME280;68414;53.946;27.634;2024-01-25T00:22:16;97089.656250;;;5.260000;79.008789
77517;BME280;68414;53.946;27.634;2024-01-25T00:23:16;97089.500000;;;5.310000;79.095703
77517;BME280;68414;53.946;27.634;2024-01-25T00:24:16;97082.921875;;;5.290000;78.828125
77517;BME280;68414;53.946;27.634;2024-01-25T00:25:19;97079.312500;;;5.250000;78.961914
77517;BME280;68414;53.946;27.634;2024-01-25T00:26:16;97083.390625;;;5.220000;78.324219
77517;BME280;68414;53.946;27.634;2024-01-25T00:27:16;97078.218750;;;5.260000;79.105469
77517;BME280;68414;53.946;27.634;2024-01-25T00:28:16;97077.750000;;;5.320000;78.944336
77517;BME280;68414;53.946;27.634;2024-01-25T00:29:16;97075.718750;;;5.380000;78.755859
77517;BME280;68414;53.946;27.634;2024-01-25T00:30:16;97073.375000;;;5.360000;78.283203
77517;BME280;68414;53.946;27.634;2024-01-25T00:31:16;97075.875000;;;5.420000;78.730469
77517;BME280;68414;53.946;27.634;2024-01-25T00:32:16;97077.281250;;;5.390000;78.342773
77517;BME280;68414;53.946;27.634;2024-01-25T00:33:16;97078.234375;;;5.430000;78.743164
77517;BME280;68414;53.946;27.634;2024-01-25T00:34:17;97074.312500;;;5.410000;78.530273
77517;BME280;68414;53.946;27.634;2024-01-25T00:35:17;97072.906250;;;5.430000;78.480469
77517;BME280;68414;53.946;27.634;2024-01-25T00:36:17;97075.250000;;;5.450000;78.703125
77517;BME280;68414;53.946;27.634;2024-01-25T00:37:16;97078.859375;;;5.400000;78.344727
77517;BME280;68414;53.946;27.634;2024-01-25T00:38:17;97072.593750;;;5.450000;78.625977
77517;BME280;68414;53.946;27.634;2024-01-25T00:39:17;97073.843750;;;5.470000;77.865234
77517;BME280;68414;53.946;27.634;2024-01-25T00:40:17;97076.500000;;;5.470000;78.456055
77517;BME280;68414;53.946;27.634;2024-01-25T00:41:17;97068.671875;;;5.510000;78.231445
77517;BME280;68414;53.946;27.634;2024-01-25T00:42:17;97068.828125;;;5.540000;78.163086
77517;BME280;68414;53.946;27.634;2024-01-25T00:43:17;97069.453125;;;5.510000;77.237305
77517;BME280;68414;53.946;27.634;2024-01-25T00:44:17;97066.476562;;;5.530000;78.006836
77517;BME280;68414;53.946;27.634;2024-01-25T00:45:17;97065.031250;;;5.550000;77.210938
77517;BME280;68414;53.946;27.634;2024-01-25T00:46:17;97067.890625;;;5.500000;77.640625
77517;BME280;68414;53.946;27.634;2024-01-25T00:47:16;97064.593750;;;5.450000;78.484375
77517;BME280;68414;53.946;27.634;2024-01-25T00:48:17;97059.585938;;;5.430000;78.557617
77517;BME280;68414;53.946;27.634;2024-01-25T00:49:17;97061.460938;;;5.510000;78.933594
77517;BME280;68414;53.946;27.634;2024-01-25T00:50:17;97068.828125;;;5.540000;78.196289
77517;BME280;68414;53.946;27.634;2024-01-25T00:51:18;97062.843750;;;5.570000;78.167969
77517;BME280;68414;53.946;27.634;2024-01-25T00:52:17;97068.007812;;;5.620000;78.406250
77517;BME280;68414;53.946;27.634;2024-01-25T00:53:17;97064.875000;;;5.600000;78.380859
77517;BME280;68414;53.946;27.634;2024-01-25T00:54:17;97066.796875;;;5.510000;78.025391
77517;BME280;68414;53.946;27.634;2024-01-25T00:55:16;97056.453125;;;5.500000;78.767578
77517;BME280;68414;53.946;27.634;2024-01-25T00:56:17;97063.343750;;;5.510000;78.275391
77517;BME280;68414;53.946;27.634;2024-01-25T00:57:16;97060.492188;;;5.560000;78.427734
77517;BME280;68414;53.946;27.634;2024-01-25T00:58:16;97054.843750;;;5.570000;78.977539
77517;BME280;68414;53.946;27.634;2024-01-25T00:59:17;97060.640625;;;5.590000;78.794922
77517;BME280;68414;53.946;27.634;2024-01-25T01:00:16;97050.140625;;;5.630000;78.462891
77517;BME280;68414;53.946;27.634;2024-01-25T01:01:17;97059.703125;;;5.550000;78.184570
77517;BME280;68414;53.946;27.634;2024-01-25T01:02:16;97057.046875;;;5.550000;77.976562
77517;BME280;68414;53.946;27.634;2024-01-25T01:03:18;97055.507812;;;5.540000;78.360352
77517;BME280;68414;53.946;27.634;2024-01-25T01:04:17;97051.437500;;;5.480000;78.435547
77517;BME280;68414;53.946;27.634;2024-01-25T01:05:17;97054.250000;;;5.520000;78.519531
77517;BME280;68414;53.946;27.634;2024-01-25T01:06:17;97052.531250;;;5.470000;78.456055
77517;BME280;68414;53.946;27.634;2024-01-25T01:07:17;97049.875000;;;5.470000;78.794922
77517;BME280;68414;53.946;27.634;2024-01-25T01:08:17;97045.171875;;;5.440000;78.254883
77517;BME280;68414;53.946;27.634;2024-01-25T01:09:16;97049.406250;;;5.450000;78.571289
77517;BME280;68414;53.946;27.634;2024-01-25T01:10:16;97049.406250;;;5.450000;78.484375
77517;BME280;68414;53.946;27.634;2024-01-25T01:11:16;97045.953125;;;5.450000;78.833984
77517;BME280;68414;53.946;27.634;2024-01-25T01:12:16;97044.703125;;;5.420000;78.951172
77517;BME280;68414;53.946;27.634;2024-01-25T01:13:16;97049.250000;;;5.420000;79.026367
77517;BME280;68414;53.946;27.634;2024-01-25T01:14:16;97043.609375;;;5.430000;78.863281
77517;BME280;68414;53.946;27.634;2024-01-25T01:15:16;97045.015625;;;5.490000;79.039062
77517;BME280;68414;53.946;27.634;2024-01-25T01:16:16;97040.468750;;;5.500000;78.494141
77517;BME280;68414;53.946;27.634;2024-01-25T01:17:16;97049.562500;;;5.490000;78.327148
77517;BME280;68414;53.946;27.634;2024-01-25T01:18:16;97040.312500;;;5.460000;78.684570
77517;BME280;68414;53.946;27.634;2024-01-25T01:19:16;97042.515625;;;5.440000;78.801758
77517;BME280;68414;53.946;27.634;2024-01-25T01:20:16;97043.445312;;;5.480000;78.414062
77517;BME280;68414;53.946;27.634;2024-01-25T01:21:16;97047.203125;;;5.470000;78.653320
77517;BME280;68414;53.946;27.634;2024-01-25T01:22:16;97044.859375;;;5.460000;78.869141
77517;BME280;68414;53.946;27.634;2024-01-25T01:23:16;97040.468750;;;5.500000;78.582031
77517;BME280;68414;53.946;27.634;2024-01-25T01:24:16;97040.312500;;;5.460000;78.662109
77517;BME280;68414;53.946;27.634;2024-01-25T01:25:16;97040.937500;;;5.430000;78.174805
77517;BME280;68414;53.946;27.634;2024-01-25T01:26:17;97046.429688;;;5.380000;78.832031
77517;BME280;68414;53.946;27.634;2024-01-25T01:27:16;97047.054688;;;5.440000;78.766602
77517;BME280;68414;53.946;27.634;2024-01-25T01:28:16;97042.351562;;;5.410000;78.344727
77517;BME280;68414;53.946;27.634;2024-01-25T01:29:16;97041.257812;;;5.420000;78.818359
77517;BME280;68414;53.946;27.634;2024-01-25T01:30:16;97042.515625;;;5.440000;78.877930
77517;BME280;68414;53.946;27.634;2024-01-25T01:31:16;97037.812500;;;5.410000;78.542969
77517;BME280;68414;53.946;27.634;2024-01-25T01:32:16;97041.726562;;;5.440000;79.007812
77517;BME280;68414;53.946;27.634;2024-01-25T01:33:16;97036.250000;;;5.400000;78.322266
77517;BME280;68414;53.946;27.634;2024-01-25T01:34:16;97039.218750;;;5.380000;78.603516
77517;BME280;68414;53.946;27.634;2024-01-25T01:35:16;97033.109375;;;5.380000;78.886719
77517;BME280;68414;53.946;27.634;2024-01-25T01:36:16;97034.046875;;;5.420000;78.984375
77517;BME280;68414;53.946;27.634;2024-01-25T01:37:16;97032.640625;;;5.450000;78.768555
77517;BME280;68414;53.946;27.634;2024-01-25T01:38:16;97032.484375;;;5.410000;78.991211
77517;BME280;68414;53.946;27.634;2024-01-25T01:39:16;97029.656250;;;5.460000;79.208984
77517;BME280;68414;53.946;27.634;2024-01-25T01:40:16;97033.578125;;;5.490000;78.655273
77517;BME280;68414;53.946;27.634;2024-01-25T01:41:16;97039.062500;;;5.440000;78.613281
77517;BME280;68414;53.946;27.634;2024-01-25T01:42:16;97042.039062;;;5.420000;78.688477
77517;BME280;68414;53.946;27.634;2024-01-25T01:44:16;97027.468750;;;5.390000;79.077148
77517;BME280;68414;53.946;27.634;2024-01-25T01:45:16;97027.468750;;;5.390000;78.923828
77517;BME280;68414;53.946;27.634;2024-01-25T01:46:24;97024.015625;;;5.480000;79.134766
77517;BME280;68414;53.946;27.634;2024-01-25T01:47:16;97023.703125;;;5.490000;78.973633
77517;BME280;68414;53.946;27.634;2024-01-25T01:48:16;97022.140625;;;5.480000;78.994141
77517;BME280;68414;53.946;27.634;2024-01-25T01:49:16;97017.750000;;;5.520000;79.153320
77517;BME280;68414;53.946;27.634;2024-01-25T01:50:17;97017.867188;;;5.560000;78.766602
77517;BME280;68414;53.946;27.634;2024-01-25T01:51:16;97023.031250;;;5.610000;78.469727
77517;BME280;68414;53.946;27.634;2024-01-25T01:52:16;97021.156250;;;5.610000;78.437500
77517;BME280;68414;53.946;27.634;2024-01-25T01:53:16;97018.640625;;;5.650000;78.268555
77517;BME280;68414;53.946;27.634;2024-01-25T01:54:16;97018.023438;;;5.590000;78.422852
77517;BME280;68414;53.946;27.634;2024-01-25T01:55:16;97018.953125;;;5.630000;78.530273
77517;BME280;68414;53.946;27.634;2024-01-25T01:56:16;97018.656250;;;5.560000;78.297852
77517;BME280;68414;53.946;27.634;2024-01-25T01:57:18;97013.515625;;;5.510000;78.561523
77517;BME280;68414;53.946;27.634;2024-01-25T01:58:16;97016.648438;;;5.530000;78.663086
77517;BME280;68414;53.946;27.634;2024-01-25T01:59:16;97013.328125;;;5.560000;78.461914
77517;BME280;68414;53.946;27.634;2024-01-25T02:00:16;97018.968750;;;5.550000;78.239258
77517;BME280;68414;53.946;27.634;2024-01-25T02:01:17;97009.710938;;;5.610000;78.580078
77517;BME280;68414;53.946;27.634;2024-01-25T02:02:18;97007.515625;;;5.630000;78.123047
77517;BME280;68414;53.946;27.634;2024-01-25T02:03:16;97008.296875;;;5.630000;77.993164
77517;BME280;68414;53.946;27.634;2024-01-25T02:04:18;97002.968750;;;5.630000;78.047852
77517;BME280;68414;53.946;27.634;2024-01-25T02:05:16;97011.593750;;;5.600000;77.756836
77517;BME280;68414;53.946;27.634;2024-01-25T02:06:16;97004.429688;;;5.520000;78.202148
77517;BME280;68414;53.946;27.634;2024-01-25T02:07:16;97008.671875;;;5.450000;78.440430
77517;BME280;68414;53.946;27.634;2024-01-25T02:08:16;96997.703125;;;5.460000;78.619141
77517;BME280;68414;53.946;27.634;2024-01-25T02:09:16;97004.906250;;;5.460000;78.649414
77517;BME280;68414;53.946;27.634;2024-01-25T02:10:16;97010.070312;;;5.510000;78.734375
77517;BME280;68414;53.946;27.634;2024-01-25T02:11:17;97010.070312;;;5.510000;78.494141
77517;BME280;68414;53.946;27.634;2024-01-25T02:12:16;97009.757812;;;5.520000;78.825195
77517;BME280;68414;53.946;27.634;2024-01-25T02:13:16;97010.218750;;;5.540000;77.988281
77517;BME280;68414;53.946;27.634;2024-01-25T02:14:16;97008.000000;;;5.560000;78.648438
77517;BME280;68414;53.946;27.634;2024-01-25T02:15:16;97004.890625;;;5.540000;78.557617
77517;BME280;68414;53.946;27.634;2024-01-25T02:16:16;97008.187500;;;5.510000;78.911133
77517;BME280;68414;53.946;27.634;2024-01-25T02:17:16;97004.109375;;;5.540000;78.916016
77517;BME280;68414;53.946;27.634;2024-01-25T02:18:16;97004.429688;;;5.520000;78.727539
77517;BME280;68414;53.946;27.634;2024-01-25T02:19:16;97004.429688;;;5.520000;78.902344
77517;BME280;68414;53.946;27.634;2024-01-25T02:20:17;97004.890625;;;5.540000;78.600586
77517;BME280;68414;53.946;27.634;2024-01-25T02:21:16;97007.093750;;;5.520000;78.923828
77517;BME280;68414;53.946;27.634;2024-01-25T02:22:17;96999.882812;;;5.530000;78.860352
77517;BME280;68414;53.946;27.634;2024-01-25T02:23:16;97005.796875;;;5.580000;79.044922
77517;BME280;68414;53.946;27.634;2024-01-25T02:24:17;97001.109375;;;5.550000;78.349609
77517;BME280;68414;53.946;27.634;2024-01-25T02:25:16;97001.109375;;;5.550000;78.579102
77517;BME280;68414;53.946;27.634;2024-01-25T02:26:16;97006.000000;;;5.530000;78.619141
77517;BME280;68414;53.946;27.634;2024-01-25T02:27:16;97002.242188;;;5.460000;78.846680
77517;BME280;68414;53.946;27.634;2024-01-25T02:28:16;96997.546875;;;5.430000;78.940430
77517;BME280;68414;53.946;27.634;2024-01-25T02:29:16;96999.109375;;;5.440000;79.325195
77517;BME280;68414;53.946;27.634;2024-01-25T02:30:16;96994.570312;;;5.440000;79.129883
77517;BME280;68414;53.946;27.634;2024-01-25T02:31:16;96999.265625;;;5.470000;79.517578
77517;BME280;68414;53.946;27.634;2024-01-25T02:32:16;96996.437500;;;5.520000;79.514648
77517;BME280;68414;53.946;27.634;2024-01-25T02:33:16;96996.750000;;;5.510000;78.187500
77517;BME280;68414;53.946;27.634;2024-01-25T02:34:16;96988.765625;;;5.510000;79.194336
77517;BME280;68414;53.946;27.634;2024-01-25T02:35:16;96994.875000;;;5.510000;78.856445
77517;BME280;68414;53.946;27.634;2024-01-25T02:36:16;96995.500000;;;5.480000;79.114258
77517;BME280;68414;53.946;27.634;2024-01-25T02:37:16;96995.656250;;;5.520000;78.967773
77517;BME280;68414;53.946;27.634;2024-01-25T02:38:16;96993.578125;;;5.570000;79.130859
77517;BME280;68414;53.946;27.634;2024-01-25T02:39:16;96989.343750;;;5.560000;78.921875
77517;BME280;68414;53.946;27.634;2024-01-25T02:40:17;96989.031250;;;5.580000;78.912109
77517;BME280;68414;53.946;27.634;2024-01-25T02:41:17;96990.914062;;;5.570000;78.890625
77517;BME280;68414;53.946;27.634;2024-01-25T02:42:16;96992.796875;;;5.570000;78.190430
77517;BME280;68414;53.946;27.634;2024-01-25T02:43:16;96989.812500;;;5.580000;78.793945
77517;BME280;68414;53.946;27.634;2024-01-25T02:44:16;97002.187500;;;5.630000;78.747070
77517;BME280;68414;53.946;27.634;2024-01-25T02:45:16;96994.406250;;;5.490000;77.835938
77517;BME280;68414;53.946;27.634;2024-01-25T02:46:16;96990.812500;;;5.450000;79.293945
77517;BME280;68414;53.946;27.634;2024-01-25T02:47:16;96986.882812;;;5.510000;78.791016
77517;BME280;68414;53.946;27.634;2024-01-25T02:48:16;96983.242188;;;5.560000;79.073242
77517;BME280;68414;53.946;27.634;2024-01-25T02:49:16;96993.625000;;;5.490000;78.337891
77517;BME280;68414;53.946;27.634;2024-01-25T02:50:16;96987.984375;;;5.500000;78.570312
77517;BME280;68414;53.946;27.634;2024-01-25T02:51:16;96991.109375;;;5.520000;78.715820
77517;BME280;68414;53.946;27.634;2024-01-25T02:52:16;96987.984375;;;5.500000;78.702148
77517;BME280;68414;53.946;27.634;2024-01-25T02:53:16;96998.000000;;;5.530000;78.805664
77517;BME280;68414;53.946;27.634;2024-01-25T02:54:16;96994.242188;;;5.540000;78.951172
77517;BME280;68414;53.946;27.634;2024-01-25T02:55:18;96990.453125;;;5.550000;78.557617
77517;BME280;68414;53.946;27.634;2024-01-25T02:56:16;96994.562500;;;5.530000;78.160156
77517;BME280;68414;53.946;27.634;2024-01-25T02:57:16;96992.203125;;;5.510000;78.462891
77517;BME280;68414;53.946;27.634;2024-01-25T02:58:16;96987.343750;;;5.530000;78.400391
77517;BME280;68414;53.946;27.634;2024-01-25T02:59:16;96989.859375;;;5.500000;78.286133
77517;BME280;68414;53.946;27.634;2024-01-25T03:00:16;96994.718750;;;5.480000;78.007812
77517;BME280;68414;53.946;27.634;2024-01-25T03:01:16;96984.843750;;;5.480000;78.052734
77517;BME280;68414;53.946;27.634;2024-01-25T03:02:16;96987.195312;;;5.500000;78.647461
77517;BME280;68414;53.946;27.634;2024-01-25T03:03:16;96989.546875;;;5.510000;78.408203
77517;BME280;68414;53.946;27.634;2024-01-25T03:04:16;96985.000000;;;5.520000;78.300781
77517;BME280;68414;53.946;27.634;2024-01-25T03:05:16;96990.328125;;;5.520000;77.380859
77517;BME280;68414;53.946;27.634;2024-01-25T03:06:16;96993.156250;;;5.470000;77.437500
77517;BME280;68414;53.946;27.634;2024-01-25T03:07:16;96991.593750;;;5.460000;77.786133
77517;BME280;68414;53.946;27.634;2024-01-25T03:08:16;96984.062500;;;5.480000;78.215820
77517;BME280;68414;53.946;27.634;2024-01-25T03:09:16;96991.742188;;;5.490000;78.284180
77517;BME280;68414;53.946;27.634;2024-01-25T03:10:16;96990.171875;;;5.480000;77.976562
77517;BME280;68414;53.946;27.634;2024-01-25T03:11:16;96992.203125;;;5.510000;77.533203
77517;BME280;68414;53.946;27.634;2024-01-25T03:12:16;96987.359375;;;5.450000;77.882812
77517;BME280;68414;53.946;27.634;2024-01-25T03:13:16;96991.437500;;;5.420000;77.506836
77517;BME280;68414;53.946;27.634;2024-01-25T03:14:16;96989.242188;;;5.440000;77.958984
77517;BME280;68414;53.946;27.634;2024-01-25T03:15:16;96990.171875;;;5.480000;77.790039
77517;BME280;68414;53.946;27.634;2024-01-25T03:16:16;96987.984375;;;5.500000;78.176758
77517;BME280;68414;53.946;27.634;2024-01-25T03:17:16;96994.101562;;;5.420000;77.649414
77517;BME280;68414;53.946;27.634;2024-01-25T03:18:16;96994.265625;;;5.370000;78.262695
77517;BME280;68414;53.946;27.634;2024-01-25T03:19:16;96990.195312;;;5.310000;78.142578
77517;BME280;68414;53.946;27.634;2024-01-25T03:20:16;96988.156250;;;5.360000;78.305664
77517;BME280;68414;53.946;27.634;2024-01-25T03:21:16;96986.273438;;;5.370000;77.376953
77517;BME280;68414;53.946;27.634;2024-01-25T03:22:16;96990.031250;;;5.360000;78.095703
77517;BME280;68414;53.946;27.634;2024-01-25T03:23:16;96995.203125;;;5.410000;78.620117
77517;BME280;68414;53.946;27.634;2024-01-25T03:24:16;96990.812500;;;5.450000;78.407227
77517;BME280;68414;53.946;27.634;2024-01-25T03:25:16;96986.890625;;;5.430000;77.277344
77517;BME280;68414;53.946;27.634;2024-01-25T03:26:16;96991.437500;;;5.420000;77.945312
77517;BME280;68414;53.946;27.634;2024-01-25T03:27:16;96982.812500;;;5.450000;77.882812
77517;BME280;68414;53.946;27.634;2024-01-25T03:28:16;96986.578125;;;5.440000;77.937500
77517;BME280;68414;53.946;27.634;2024-01-25T03:29:16;96990.812500;;;5.450000;77.871094
77517;BME280;68414;53.946;27.634;2024-01-25T03:30:16;96985.164062;;;5.470000;77.633789
77517;BME280;68414;53.946;27.634;2024-01-25T03:31:16;96976.546875;;;5.500000;77.169922
77517;BME280;68414;53.946;27.634;2024-01-25T03:32:16;96979.054688;;;5.460000;77.579102
77517;BME280;68414;53.946;27.634;2024-01-25T03:33:16;96985.312500;;;5.500000;77.531250
77517;BME280;68414;53.946;27.634;2024-01-25T03:34:16;96982.500000;;;5.470000;76.801758
77517;BME280;68414;53.946;27.634;2024-01-25T03:35:16;96982.984375;;;5.400000;78.530273
77517;BME280;68414;53.946;27.634;2024-01-25T03:36:16;96983.914062;;;5.440000;78.297852
77517;BME280;68414;53.946;27.634;2024-01-25T03:37:16;96986.109375;;;5.420000;77.583984
77517;BME280;68414;53.946;27.634;2024-01-25T03:38:16;96983.453125;;;5.420000;78.042969
77517;BME280;68414;53.946;27.634;2024-01-25T03:39:16;96984.703125;;;5.450000;77.992188
77517;BME280;68414;53.946;27.634;2024-01-25T03:40:16;96983.914062;;;5.440000;77.542969
77517;BME280;68414;53.946;27.634;2024-01-25T03:41:16;96979.523438;;;5.480000;77.549805
77517;BME280;68414;53.946;27.634;2024-01-25T03:42:16;96978.257812;;;5.540000;77.703125
77517;BME280;68414;53.946;27.634;2024-01-25T03:43:16;96983.390625;;;5.590000;77.153320
77517;BME280;68414;53.946;27.634;2024-01-25T03:44:16;96983.539062;;;5.630000;77.126953
77517;BME280;68414;53.946;27.634;2024-01-25T03:45:16;96988.078125;;;5.620000;77.114258
77517;BME280;68414;53.946;27.634;2024-01-25T03:46:16;96986.984375;;;5.630000;76.548828
77517;BME280;68414;53.946;27.634;2024-01-25T03:47:16;96983.859375;;;5.610000;76.882812
77517;BME280;68414;53.946;27.634;2024-01-25T03:48:16;96991.375000;;;5.590000;76.989258
77517;BME280;68414;53.946;27.634;2024-01-25T03:49:16;96981.507812;;;5.600000;76.760742
77517;BME280;68414;53.946;27.634;2024-01-25T03:50:16;96989.968750;;;5.620000;76.939453
77517;BME280;68414;53.946;27.634;2024-01-25T03:51:16;96986.250000;;;5.540000;76.915039
77517;BME280;68414;53.946;27.634;2024-01-25T03:52:16;96983.437500;;;5.510000;76.995117
77517;BME280;68414;53.946;27.634;2024-01-25T03:53:16;96980.453125;;;5.520000;77.118164
77517;BME280;68414;53.946;27.634;2024-01-25T03:54:16;96982.804688;;;5.540000;76.968750
77517;BME280;68414;53.946;27.634;2024-01-25T03:55:18;96982.968750;;;5.490000;76.772461
77517;BME280;68414;53.946;27.634;2024-01-25T03:56:16;96978.281250;;;5.370000;76.523438
77517;BME280;68414;53.946;27.634;2024-01-25T03:57:16;96987.531250;;;5.390000;77.085938
77517;BME280;68414;53.946;27.634;2024-01-25T03:58:17;96981.562500;;;5.430000;76.806641
77517;BME280;68414;53.946;27.634;2024-01-25T03:59:16;96981.882812;;;5.410000;76.639648
77517;BME280;68414;53.946;27.634;2024-01-25T04:00:16;96977.500000;;;5.360000;76.916016
77517;BME280;68414;53.946;27.634;2024-01-25T04:01:16;96983.453125;;;5.330000;76.943359
77517;BME280;68414;53.946;27.634;2024-01-25T04:02:16;96977.351562;;;5.330000;76.898438
77517;BME280;68414;53.946;27.634;2024-01-25T04:03:16;96979.078125;;;5.290000;76.914062
77517;BME280;68414;53.946;27.634;2024-01-25T04:04:16;96975.484375;;;5.250000;76.938477
77517;BME280;68414;53.946;27.634;2024-01-25T04:05:16;96988.476562;;;5.260000;77.422852
77517;BME280;68414;53.946;27.634;2024-01-25T04:06:16;96972.812500;;;5.250000;77.113281
77517;BME280;68414;53.946;27.634;2024-01-25T04:07:16;96985.031250;;;5.260000;76.951172
77517;BME280;68414;53.946;27.634;2024-01-25T04:08:16;96986.281250;;;5.280000;77.196289
77517;BME280;68414;53.946;27.634;2024-01-25T04:09:16;96988.632812;;;5.300000;77.036133
77517;BME280;68414;53.946;27.634;2024-01-25T04:10:16;96982.835938;;;5.280000;77.128906
77517;BME280;68414;53.946;27.634;2024-01-25T04:11:16;96986.125000;;;5.250000;77.277344
77517;BME280;68414;53.946;27.634;2024-01-25T04:12:16;96985.500000;;;5.280000;77.206055
77517;BME280;68414;53.946;27.634;2024-01-25T04:13:16;96990.671875;;;5.240000;77.605469
77517;BME280;68414;53.946;27.634;2024-01-25T04:14:16;96981.273438;;;5.270000;77.370117
77517;BME280;68414;53.946;27.634;2024-01-25T04:15:16;96994.585938;;;5.270000;77.304688
77517;BME280;68414;53.946;27.634;2024-01-25T04:16:16;96980.640625;;;5.300000;77.024414
77517;BME280;68414;53.946;27.634;2024-01-25T04:17:16;96980.640625;;;5.300000;76.773438
77517;BME280;68414;53.946;27.634;2024-01-25T04:18:16;96985.500000;;;5.280000;76.757812
77517;BME280;68414;53.946;27.634;2024-01-25T04:19:16;96990.671875;;;5.240000;77.091797
77517;BME280;68414;53.946;27.634;2024-01-25T04:20:16;96992.390625;;;5.290000;77.362305
77517;BME280;68414;53.946;27.634;2024-01-25T04:21:16;96987.531250;;;5.310000;77.103516
77517;BME280;68414;53.946;27.634;2024-01-25T04:22:16;96982.671875;;;5.330000;76.745117
77517;BME280;68414;53.946;27.634;2024-01-25T04:23:16;96974.218750;;;5.310000;77.343750
77517;BME280;68414;53.946;27.634;2024-01-25T04:24:16;96978.132812;;;5.330000;76.976562
77517;BME280;68414;53.946;27.634;2024-01-25T04:25:16;96978.914062;;;5.340000;76.877930
77517;BME280;68414;53.946;27.634;2024-01-25T04:26:16;96973.273438;;;5.350000;77.264648
77517;BME280;68414;53.946;27.634;2024-01-25T04:27:16;96980.015625;;;5.330000;77.062500
77517;BME280;68414;53.946;27.634;2024-01-25T04:28:16;96972.492188;;;5.350000;76.956055
77517;BME280;68414;53.946;27.634;2024-01-25T04:29:16;96978.914062;;;5.340000;76.976562
77517;BME280;68414;53.946;27.634;2024-01-25T04:30:16;96979.382812;;;5.360000;76.870117
77517;BME280;68414;53.946;27.634;2024-01-25T04:31:16;96984.242188;;;5.340000;76.999023
77517;BME280;68414;53.946;27.634;2024-01-25T04:32:16;96976.250000;;;5.340000;76.429688
77517;BME280;68414;53.946;27.634;2024-01-25T04:33:16;96970.460938;;;5.320000;75.999023
77517;BME280;68414;53.946;27.634;2024-01-25T04:34:16;96970.312500;;;5.280000;76.714844